Time;durP1;ratioP1;P1;durP2;ratioP2;P2;SDS_P1;SDS_P2;PMS_P1;PMS_P2;Temp;Humidity;BMP_temperature;BMP_pressure;BME280_temperature;BME280_humidity;BME280_pressure;Samples;Min_cycle;Max_cycle;Signal;HPM_P1;HPM_P2
2022/08/26 00:01:38;;;;;;;5.87;5.37;;;;;;;21.04;69.99;99740.75;4997864;28;20222;-70
2022/08/26 00:04:03;;;;;;;6.37;5.77;;;;;;;20.97;69.37;99740.56;4990679;28;20184;-70
2022/08/26 00:06:31;;;;;;;5.30;4.90;;;;;;;20.91;70.35;99742.03;4995640;28;20183;-70
2022/08/26 00:08:56;;;;;;;9.47;5.63;;;;;;;20.84;70.93;99740.19;4995905;28;20226;-70
2022/08/26 00:11:21;;;;;;;5.97;5.47;;;;;;;20.84;71.77;99743.66;4995498;28;20575;-70
2022/08/26 00:13:46;;;;;;;6.00;5.13;;;;;;;20.85;72.24;99736.63;4991024;28;20184;-70
2022/08/26 00:16:12;;;;;;;5.97;5.40;;;;;;;20.93;72.11;99739.25;4990182;28;20191;-70
2022/08/26 00:18:38;;;;;;;5.80;5.20;;;;;;;20.92;72.72;99735.00;4995569;28;20211;-70
2022/08/26 00:21:05;;;;;;;5.73;5.20;;;;;;;20.88;73.77;99736.31;4992925;28;20249;-71
2022/08/26 00:23:30;;;;;;;8.53;5.70;;;;;;;20.87;73.86;99735.47;4993927;28;20667;-70
2022/08/26 00:25:56;;;;;;;11.17;5.70;;;;;;;20.87;74.76;99734.66;4990686;28;20187;-70
2022/08/26 00:28:21;;;;;;;6.43;5.33;;;;;;;20.84;74.99;99730.59;4993167;28;20199;-71
2022/08/26 00:30:49;;;;;;;5.97;5.37;;;;;;;20.80;75.00;99731.84;4992145;28;20308;-71
2022/08/26 00:33:16;;;;;;;6.20;5.43;;;;;;;20.74;75.47;99728.09;4980276;28;20623;-71
2022/08/26 00:35:42;;;;;;;6.17;5.60;;;;;;;20.69;75.92;99732.97;4997987;28;20601;-71
2022/08/26 00:38:08;;;;;;;6.10;5.57;;;;;;;20.71;75.79;99732.78;4993754;28;20517;-72
2022/08/26 00:40:37;;;;;;;6.90;5.47;;;;;;;20.75;75.10;99728.91;4985523;28;20732;-70
2022/08/26 00:43:05;;;;;;;6.10;5.50;;;;;;;20.69;75.58;99730.34;4991773;28;20180;-71
2022/08/26 00:45:38;;;;;;;6.20;5.60;;;;;;;20.66;76.50;99733.25;4982159;28;20184;-70
2022/08/26 00:48:06;;;;;;;6.33;5.03;;;;;;;20.68;76.10;99727.88;4989192;28;20200;-71
2022/08/26 00:50:40;;;;;;;6.63;5.10;;;;;;;20.59;76.51;99729.63;4980405;28;20662;-69
2022/08/26 00:53:20;;;;;;;5.90;5.30;;;;;;;20.64;74.13;99732.63;5010396;28;20183;-69
2022/08/26 00:55:50;;;;;;;9.07;5.23;;;;;;;20.57;73.45;99735.03;4990659;28;20222;-69
2022/08/26 00:58:16;;;;;;;6.30;5.70;;;;;;;20.51;73.61;99727.81;4988751;28;20187;-69
2022/08/26 01:00:42;;;;;;;6.70;5.63;;;;;;;20.42;75.22;99729.59;4980003;28;20230;-69
2022/08/26 01:03:09;;;;;;;8.33;5.40;;;;;;;20.39;74.82;99731.69;4992496;28;20215;-69
2022/08/26 01:05:34;;;;;;;6.53;5.57;;;;;;;20.19;76.11;99728.50;4988835;28;20180;-69
2022/08/26 01:07:59;;;;;;;6.93;5.20;;;;;;;20.11;76.82;99740.53;4992034;28;20185;-70
2022/08/26 01:10:28;;;;;;;6.60;5.40;;;;;;;20.13;76.25;99728.16;4981917;28;20603;-69
2022/08/26 01:13:01;;;;;;;9.90;5.30;;;;;;;20.12;75.52;99731.72;4996242;28;20183;-69
2022/08/26 01:15:33;;;;;;;6.10;5.50;;;;;;;20.11;76.17;99724.88;5008012;28;20270;-69
2022/08/26 01:17:59;;;;;;;6.37;5.60;;;;;;;20.13;76.62;99725.53;4989795;28;20203;-70
2022/08/26 01:20:44;;;;;;;7.17;6.17;;;;;;;20.04;76.94;99729.06;5001187;28;20230;-69
2022/08/26 01:23:11;;;;;;;6.70;6.10;;;;;;;20.10;76.58;99728.44;4990638;28;20188;-69
2022/08/26 01:25:40;;;;;;;6.67;6.07;;;;;;;20.08;76.48;99724.34;4988311;28;20172;-69
2022/08/26 01:28:09;;;;;;;6.10;5.40;;;;;;;20.03;76.96;99716.16;4987534;28;20546;-69
2022/08/26 01:30:37;;;;;;;6.33;5.73;;;;;;;19.95;76.83;99722.97;4988340;28;20245;-69
2022/08/26 01:33:09;;;;;;;11.43;5.47;;;;;;;19.98;76.47;99725.28;4987193;28;20270;-69
2022/08/26 01:35:36;;;;;;;6.17;5.30;;;;;;;20.02;76.67;99717.97;4987849;28;20255;-69
2022/08/26 01:38:02;;;;;;;8.50;5.83;;;;;;;20.04;76.79;99721.22;4991606;28;20550;-69
2022/08/26 01:40:31;;;;;;;6.40;5.80;;;;;;;20.11;76.54;99724.06;4943243;28;1158463;-71
2022/08/26 01:42:58;;;;;;;6.30;5.73;;;;;;;20.13;76.14;99717.69;4987259;28;20196;-70
2022/08/26 01:45:26;;;;;;;6.40;5.63;;;;;;;20.09;77.03;99720.78;4984515;28;20235;-70
2022/08/26 01:47:55;;;;;;;6.10;5.50;;;;;;;20.05;77.03;99727.28;4993848;28;20183;-70
2022/08/26 01:50:26;;;;;;;7.63;5.23;;;;;;;19.94;78.25;99729.16;4986248;28;20645;-70
2022/08/26 01:52:53;;;;;;;6.97;5.87;;;;;;;19.96;79.29;99729.03;4995630;28;20187;-70
2022/08/26 01:55:19;;;;;;;5.73;5.23;;;;;;;19.97;78.68;99725.41;5000863;28;20192;-71
2022/08/26 01:57:48;;;;;;;6.17;5.40;;;;;;;19.96;78.61;99727.22;4989102;28;20190;-70
2022/08/26 02:00:14;;;;;;;7.73;5.30;;;;;;;20.00;78.21;99722.53;4991086;28;20766;-70
2022/08/26 02:02:44;;;;;;;6.10;5.10;;;;;;;20.05;78.01;99728.09;4991787;28;20623;-69
2022/08/26 02:05:15;;;;;;;6.77;5.47;;;;;;;20.03;77.79;99729.22;4993249;28;20183;-70
2022/08/26 02:07:42;;;;;;;6.50;5.83;;;;;;;20.04;78.31;99736.88;4990987;28;20524;-70
2022/08/26 02:10:08;;;;;;;6.33;5.67;;;;;;;19.96;79.07;99737.66;4978606;28;20612;-70
2022/08/26 02:12:34;;;;;;;6.77;5.37;;;;;;;19.92;80.07;99731.13;5002187;28;20623;-70
2022/08/26 02:15:03;;;;;;;5.60;5.10;;;;;;;19.75;80.82;99729.34;4993168;28;20186;-69
2022/08/26 02:17:33;;;;;;;7.87;5.77;;;;;;;19.49;83.31;99735.34;4993483;28;20206;-70
2022/08/26 02:19:59;;;;;;;5.80;5.20;;;;;;;19.50;83.96;99737.00;4993010;28;20202;-70
2022/08/26 02:22:25;;;;;;;6.30;5.00;;;;;;;19.56;83.84;99732.94;4982556;28;20231;-70
2022/08/26 02:24:55;;;;;;;7.17;5.73;;;;;;;19.48;84.68;99733.69;4992821;28;20662;-70
2022/08/26 02:27:25;;;;;;;5.87;5.37;;;;;;;19.51;84.32;99739.44;4988796;28;20267;-70
2022/08/26 02:30:13;;;;;;;9.40;5.77;;;;;;;19.34;85.34;99738.47;4989156;28;20203;-70
2022/08/26 02:32:39;;;;;;;6.63;5.67;;;;;;;19.44;85.00;99734.97;4974137;28;20231;-70
2022/08/26 02:35:06;;;;;;;7.33;5.27;;;;;;;19.43;85.45;99735.94;4995814;28;20176;-69
2022/08/26 02:37:31;;;;;;;7.90;5.60;;;;;;;19.38;85.67;99738.19;4990809;28;20644;-70
2022/08/26 02:39:57;;;;;;;6.70;6.10;;;;;;;19.37;85.41;99739.16;4984520;28;20262;-70
2022/08/26 02:42:22;;;;;;;8.33;5.43;;;;;;;19.56;84.05;99738.16;4996509;28;20606;-70
2022/08/26 02:44:48;;;;;;;7.20;5.50;;;;;;;19.51;83.37;99744.66;4992359;28;20197;-70
2022/08/26 02:47:14;;;;;;;6.73;6.00;;;;;;;19.59;83.22;99738.69;4992699;28;20535;-70
2022/08/26 02:49:42;;;;;;;7.23;5.77;;;;;;;19.66;82.74;99742.31;4988421;28;20212;-70
2022/08/26 02:52:08;;;;;;;6.17;5.57;;;;;;;19.70;82.03;99737.63;4984252;28;20218;-71
2022/08/26 02:54:34;;;;;;;7.90;5.63;;;;;;;19.72;82.31;99737.47;5007450;28;20186;-70
2022/08/26 02:56:59;;;;;;;8.00;5.67;;;;;;;19.76;82.17;99730.97;5007778;28;20179;-70
2022/08/26 02:59:25;;;;;;;5.60;5.10;;;;;;;19.64;83.19;99735.63;4991244;28;20175;-70
2022/08/26 03:01:51;;;;;;;7.03;5.43;;;;;;;19.62;83.06;99735.78;4956566;28;20734;-70
2022/08/26 03:04:16;;;;;;;7.10;5.80;;;;;;;19.61;83.08;99734.13;4984064;28;20246;-70
2022/08/26 03:06:41;;;;;;;7.93;6.07;;;;;;;19.56;84.04;99736.38;5007497;28;20266;-70
2022/08/26 03:09:08;;;;;;;6.33;5.77;;;;;;;19.52;84.30;99735.03;4988032;28;20195;-70
2022/08/26 03:11:34;;;;;;;7.43;5.83;;;;;;;19.52;84.48;99729.81;4980208;28;20671;-71
2022/08/26 03:14:00;;;;;;;5.43;4.93;;;;;;;19.46;85.06;99733.03;4995386;28;20179;-70
2022/08/26 03:16:25;;;;;;;11.23;6.03;;;;;;;19.45;85.13;99731.38;4992458;28;20230;-70
2022/08/26 03:18:51;;;;;;;10.57;5.53;;;;;;;19.40;85.04;99729.25;4987687;28;20200;-70
2022/08/26 03:21:17;;;;;;;7.23;5.60;;;;;;;19.38;83.95;99733.78;4976170;28;20230;-70
2022/08/26 03:23:43;;;;;;;6.57;5.80;;;;;;;19.23;84.73;99736.09;4997706;28;20175;-70
2022/08/26 03:26:11;;;;;;;6.27;5.20;;;;;;;18.98;85.89;99733.25;4987409;28;20187;-70
2022/08/26 03:31:22;;;;;;;8.23;5.57;;;;;;;19.16;85.75;99729.84;4964187;28;20787;-70
2022/08/26 03:33:47;;;;;;;7.00;5.80;;;;;;;19.20;85.18;99728.56;4983052;28;20221;-70
2022/08/26 03:36:14;;;;;;;6.03;5.53;;;;;;;19.27;85.15;99731.41;5005952;28;20219;-71
2022/08/26 03:38:39;;;;;;;7.10;5.70;;;;;;;19.22;84.63;99729.22;4988577;28;20191;-69
2022/08/26 03:41:04;;;;;;;6.90;5.27;;;;;;;19.29;83.83;99727.69;4999878;28;20231;-70
2022/08/26 03:43:30;;;;;;;6.63;5.20;;;;;;;19.29;83.27;99726.88;4999367;28;20179;-70
2022/08/26 03:45:55;;;;;;;6.70;5.27;;;;;;;19.37;83.02;99726.13;4987523;28;20190;-69
2022/08/26 03:48:20;;;;;;;6.77;5.60;;;;;;;19.33;83.56;99720.38;4981977;28;20691;-70
2022/08/26 03:50:45;;;;;;;7.23;5.53;;;;;;;19.36;83.24;99722.66;4964526;28;20246;-70
2022/08/26 03:53:11;;;;;;;7.60;5.90;;;;;;;19.34;83.89;99717.63;4976763;28;20184;-70
2022/08/26 03:55:36;;;;;;;5.50;5.00;;;;;;;19.38;84.01;99717.31;4986221;28;20195;-67
2022/08/26 03:58:01;;;;;;;6.73;6.07;;;;;;;19.49;83.52;99725.72;4991548;28;20188;-63
2022/08/26 04:00:27;;;;;;;6.27;5.47;;;;;;;19.60;82.94;99727.28;4985126;28;20246;-63
2022/08/26 04:02:52;;;;;;;6.20;5.67;;;;;;;19.64;82.64;99726.00;5003964;28;20179;-63
2022/08/26 04:05:20;;;;;;;8.17;5.77;;;;;;;19.56;82.86;99731.16;4991451;28;20265;-63
2022/08/26 04:07:46;;;;;;;9.73;6.17;;;;;;;19.67;82.46;99724.88;4991652;28;20621;-63
2022/08/26 04:10:14;;;;;;;6.00;5.37;;;;;;;19.56;82.71;99728.56;4980588;28;20238;-62
2022/08/26 04:12:40;;;;;;;6.10;5.53;;;;;;;19.62;82.42;99733.19;5005291;28;20190;-63
2022/08/26 04:15:11;;;;;;;5.87;5.37;;;;;;;19.35;83.22;99734.09;4991081;28;20179;-62
2022/08/26 04:17:36;;;;;;;7.10;5.57;;;;;;;19.34;83.65;99742.88;4991729;28;20207;-63
2022/08/26 04:20:04;;;;;;;7.03;5.40;;;;;;;19.30;84.25;99734.53;4988167;28;20242;-62
2022/08/26 04:22:29;;;;;;;5.87;5.27;;;;;;;19.38;84.19;99741.59;4994677;28;20207;-63
2022/08/26 04:24:55;;;;;;;5.77;5.17;;;;;;;19.33;84.22;99736.84;4989081;28;20180;-63
2022/08/26 04:27:20;;;;;;;6.90;5.50;;;;;;;19.49;83.74;99722.31;4991968;28;20286;-63
2022/08/26 04:29:46;;;;;;;10.83;5.60;;;;;;;19.58;83.49;99731.00;4991480;28;20207;-63
2022/08/26 04:32:11;;;;;;;6.60;5.53;;;;;;;19.58;83.30;99734.44;5001788;28;20222;-63
2022/08/26 04:34:37;;;;;;;6.53;5.90;;;;;;;19.72;83.08;99729.63;4995795;28;20631;-63
2022/08/26 04:37:03;;;;;;;8.70;6.17;;;;;;;19.77;82.35;99738.66;4993166;28;20183;-63
2022/08/26 04:39:30;;;;;;;5.93;5.30;;;;;;;19.90;81.88;99743.50;4998052;28;20238;-63
2022/08/26 04:41:55;;;;;;;8.97;6.17;;;;;;;19.83;82.42;99737.25;4999591;28;20218;-61
2022/08/26 04:44:23;;;;;;;8.40;5.90;;;;;;;19.84;82.84;99739.69;4995175;28;20277;-63
2022/08/26 04:46:48;;;;;;;6.80;5.83;;;;;;;19.91;82.81;99737.31;4990622;28;20196;-62
2022/08/26 04:49:13;;;;;;;6.90;6.20;;;;;;;19.74;83.99;99736.34;4991887;28;20203;-63
2022/08/26 04:51:39;;;;;;;8.10;5.40;;;;;;;19.66;84.26;99738.91;4999799;28;20682;-63
2022/08/26 04:54:05;;;;;;;8.43;6.27;;;;;;;19.62;84.82;99737.56;5000907;28;20299;-62
2022/08/26 04:56:43;;;;;;;7.80;5.27;;;;;;;19.67;84.47;99743.97;4990102;28;20660;-63
2022/08/26 04:59:11;;;;;;;7.00;5.47;;;;;;;19.86;83.53;99741.34;4990853;28;20194;-63
2022/08/26 05:01:37;;;;;;;8.03;5.90;;;;;;;20.00;82.09;99746.00;4996862;28;20221;-63
2022/08/26 05:04:04;;;;;;;10.27;5.53;;;;;;;19.80;83.34;99742.75;4997431;28;20179;-61
2022/08/26 05:06:30;;;;;;;6.40;5.90;;;;;;;19.77;83.96;99751.72;4990104;28;20191;-62
2022/08/26 05:08:55;;;;;;;7.33;5.30;;;;;;;19.88;82.71;99744.63;4987177;28;20238;-64
2022/08/26 05:11:21;;;;;;;9.00;5.70;;;;;;;20.11;82.00;99750.16;4994144;28;20297;-63
2022/08/26 05:13:47;;;;;;;6.57;5.60;;;;;;;20.16;81.65;99753.94;4999558;28;20270;-63
2022/08/26 05:16:14;;;;;;;8.93;6.17;;;;;;;20.31;81.04;99750.75;4991634;28;20530;-63
2022/08/26 05:18:42;;;;;;;6.57;5.87;;;;;;;20.28;81.59;99753.66;4994328;28;20211;-62
2022/08/26 05:21:14;;;;;;;7.93;5.80;;;;;;;20.30;81.46;99754.34;4992339;28;20245;-63
2022/08/26 05:23:39;;;;;;;6.30;5.80;;;;;;;20.32;80.92;99757.63;5000266;28;20183;-61
2022/08/26 05:26:06;;;;;;;5.87;5.27;;;;;;;20.56;79.78;99766.53;4993972;28;20194;-62
2022/08/26 05:28:32;;;;;;;7.60;5.80;;;;;;;20.55;79.04;99760.47;4994289;28;20203;-62
2022/08/26 05:30:57;;;;;;;8.10;7.17;;;;;;;20.58;78.43;99762.00;4990203;28;20227;-63
2022/08/26 05:33:23;;;;;;;6.03;5.47;;;;;;;20.61;77.96;99764.28;4991225;28;20187;-63
2022/08/26 05:35:48;;;;;;;6.30;5.70;;;;;;;20.59;77.65;99766.22;5006402;28;20198;-64
2022/08/26 05:38:16;;;;;;;8.40;5.20;;;;;;;20.85;75.96;99768.81;4981487;28;20196;-63
2022/08/26 05:40:47;;;;;;;10.50;5.70;;;;;;;20.68;77.54;99760.06;4983381;28;20227;-63
2022/08/26 05:43:14;;;;;;;7.13;4.83;;;;;;;20.85;77.28;99766.19;5002507;28;20182;-63
2022/08/26 05:45:45;;;;;;;5.87;5.30;;;;;;;21.10;76.33;99774.13;4991419;28;20187;-63
2022/08/26 05:48:12;;;;;;;7.07;4.73;;;;;;;21.26;74.93;99771.50;4988910;28;20188;-62
2022/08/26 05:50:46;;;;;;;10.20;6.27;;;;;;;21.44;73.74;99768.75;4983829;28;20567;-63
2022/08/26 05:53:13;;;;;;;5.77;4.97;;;;;;;21.60;73.14;99773.19;5009908;28;20183;-63
2022/08/26 05:55:46;;;;;;;6.60;5.27;;;;;;;21.57;71.84;99776.16;4993298;28;20188;-63
2022/08/26 05:58:12;;;;;;;5.83;5.20;;;;;;;21.67;71.75;99770.75;5008534;28;20175;-63
2022/08/26 06:00:38;;;;;;;7.63;5.00;;;;;;;21.88;70.80;99779.88;4987823;28;20246;-62
2022/08/26 06:03:04;;;;;;;9.70;5.40;;;;;;;21.88;70.86;99780.72;5004239;28;20328;-63
2022/08/26 06:05:29;;;;;;;6.20;5.60;;;;;;;22.00;70.19;99783.00;4993095;28;20211;-64
2022/08/26 06:08:10;;;;;;;10.00;5.33;;;;;;;22.28;69.52;99786.06;4993247;28;20176;-63
2022/08/26 06:10:42;;;;;;;5.77;5.17;;;;;;;22.39;68.88;99783.09;4992146;28;20231;-58
2022/08/26 06:13:09;;;;;;;7.83;5.30;;;;;;;22.52;67.04;99784.38;4984027;28;20175;-59
2022/08/26 06:15:38;;;;;;;7.93;5.50;;;;;;;22.58;66.64;99788.94;4975857;28;20183;-59
2022/08/26 06:18:03;;;;;;;10.93;6.10;;;;;;;22.84;65.15;99783.41;4973744;28;20199;-59
2022/08/26 06:20:30;;;;;;;11.60;5.23;;;;;;;22.99;64.78;99783.50;4972706;28;20235;-58
2022/08/26 06:25:40;;;;;;;8.60;5.97;;;;;;;23.13;64.65;99781.94;4983697;28;20338;-58
2022/08/26 06:28:06;;;;;;;8.93;6.60;;;;;;;23.20;63.33;99785.53;4982083;28;20180;-59
2022/08/26 06:30:37;;;;;;;10.43;6.43;;;;;;;23.32;63.99;99778.09;4983409;28;20303;-59
2022/08/26 06:33:03;;;;;;;8.83;6.40;;;;;;;23.40;63.63;99784.25;4991204;28;20203;-59
2022/08/26 06:35:28;;;;;;;10.60;6.83;;;;;;;23.56;63.86;99784.13;4991015;28;20726;-58
2022/08/26 06:37:54;;;;;;;10.87;7.97;;;;;;;23.83;62.45;99793.25;4989862;28;20654;-59
2022/08/26 06:40:22;;;;;;;10.47;8.23;;;;;;;23.92;62.63;99795.84;4977945;28;20222;-58
2022/08/26 06:42:47;;;;;;;14.03;8.17;;;;;;;24.16;61.77;99795.63;4991115;28;20241;-59
2022/08/26 06:45:13;;;;;;;11.10;8.10;;;;;;;24.24;61.24;99797.34;4992189;28;20268;-59
2022/08/26 06:47:38;;;;;;;12.50;8.20;;;;;;;24.69;59.23;99801.78;4991600;28;20188;-59
2022/08/26 06:50:04;;;;;;;16.23;8.40;;;;;;;25.51;57.43;99800.66;4982889;28;20203;-59
2022/08/26 06:52:29;;;;;;;13.37;8.47;;;;;;;26.41;53.76;99795.63;4990986;28;20251;-59
2022/08/26 06:54:55;;;;;;;12.65;9.13;;;;;;;26.62;52.42;99798.38;4991430;28;20188;-58
2022/08/26 06:57:20;;;;;;;16.05;9.15;;;;;;;26.64;52.41;99801.63;4992706;28;20184;-59
2022/08/26 06:59:45;;;;;;;12.18;8.73;;;;;;;26.55;52.63;99796.50;4992803;28;20554;-58
2022/08/26 07:02:11;;;;;;;11.02;7.95;;;;;;;26.84;52.18;99801.72;4945864;28;20235;-59
2022/08/26 07:04:36;;;;;;;9.85;7.95;;;;;;;27.26;49.78;99796.38;4956536;28;20671;-59
2022/08/26 07:07:01;;;;;;;11.07;7.43;;;;;;;26.90;50.29;99799.13;4954497;28;20706;-59
2022/08/26 07:09:34;;;;;;;9.50;7.55;;;;;;;26.80;51.48;99800.50;4969659;28;20204;-59
2022/08/26 07:11:59;;;;;;;8.38;7.38;;;;;;;26.72;51.54;99801.47;4993439;28;20226;-59
2022/08/26 07:14:25;;;;;;;8.52;7.65;;;;;;;27.60;49.10;99799.84;4992226;28;20183;-58
2022/08/26 07:16:50;;;;;;;10.38;7.85;;;;;;;28.59;45.02;99798.09;4989837;28;20233;-59
2022/08/26 07:19:20;;;;;;;8.82;7.60;;;;;;;28.20;45.91;99804.31;4977881;28;20569;-58
2022/08/26 07:21:45;;;;;;;10.15;7.32;;;;;;;29.09;43.79;99804.59;4993328;28;20312;-59
2022/08/26 07:24:11;;;;;;;10.60;8.65;;;;;;;29.46;42.42;99807.44;4993517;28;20183;-58
2022/08/26 07:26:36;;;;;;;14.95;7.93;;;;;;;28.62;44.20;99799.50;4989275;28;20179;-58
2022/08/26 07:29:02;;;;;;;8.98;8.18;;;;;;;27.99;46.26;99796.38;4990046;28;20211;-58
2022/08/26 07:31:31;;;;;;;9.15;8.25;;;;;;;27.10;49.08;99808.09;4951183;28;20674;-59
2022/08/26 07:33:57;;;;;;;8.88;7.97;;;;;;;26.37;52.03;99801.50;4986762;28;20245;-58
2022/08/26 07:36:23;;;;;;;11.68;8.40;;;;;;;26.15;53.31;99803.38;4992143;28;20191;-59
2022/08/26 07:38:50;;;;;;;10.43;9.32;;;;;;;26.28;52.89;99807.94;4990814;28;20209;-59
2022/08/26 07:41:18;;;;;;;11.07;8.65;;;;;;;25.90;54.42;99814.34;4975219;28;20706;-58
2022/08/26 07:43:44;;;;;;;10.77;9.13;;;;;;;25.49;56.31;99810.59;4986527;28;20183;-58
2022/08/26 07:46:10;;;;;;;9.57;8.68;;;;;;;25.52;57.08;99799.66;4991667;28;20626;-58
2022/08/26 07:48:35;;;;;;;11.77;8.90;;;;;;;26.03;54.68;99803.91;4991869;28;20536;-58
2022/08/26 07:51:02;;;;;;;12.57;9.10;;;;;;;26.10;55.17;99809.25;4994472;28;20222;-57
2022/08/26 07:53:27;;;;;;;10.80;9.70;;;;;;;26.65;52.92;99809.34;4999369;28;20682;-58
2022/08/26 07:55:53;;;;;;;14.93;9.45;;;;;;;27.27;50.82;99811.19;4991299;28;20188;-58
2022/08/26 07:58:18;;;;;;;9.75;8.85;;;;;;;27.61;48.79;99815.53;4991815;28;20311;-58
2022/08/26 08:00:43;;;;;;;16.00;9.18;;;;;;;28.71;45.84;99814.13;4987186;28;20235;-58
2022/08/26 08:03:09;;;;;;;11.60;8.90;;;;;;;30.07;41.42;99827.13;4988111;28;20619;-58
2022/08/26 08:05:35;;;;;;;10.85;9.10;;;;;;;31.00;39.89;99823.63;4978993;28;20272;-58
2022/08/26 08:08:04;;;;;;;13.00;8.98;;;;;;;31.79;37.24;99825.31;4999994;28;20189;-59
2022/08/26 08:10:30;;;;;;;10.38;8.18;;;;;;;31.99;36.51;99817.81;4989101;28;20230;-59
2022/08/26 08:12:57;;;;;;;9.02;8.13;;;;;;;32.77;35.41;99820.25;4994508;28;20282;-58
2022/08/26 08:15:26;;;;;;;12.15;7.70;;;;;;;34.09;32.22;99819.19;4995149;28;20183;-58
2022/08/26 08:17:52;;;;;;;9.23;7.15;;;;;;;35.25;30.34;99818.31;4995528;28;20221;-58
2022/08/26 08:20:19;;;;;;;8.60;7.20;;;;;;;33.70;32.39;99829.00;4984980;28;20191;-58
2022/08/26 08:22:44;;;;;;;14.85;7.20;;;;;;;32.86;34.48;99823.34;4996942;28;20195;-59
2022/08/26 08:25:11;;;;;;;7.68;6.93;;;;;;;33.20;33.91;99827.94;4990882;28;20179;-59
2022/08/26 08:27:38;;;;;;;9.32;7.13;;;;;;;34.20;32.47;99825.47;4987986;28;20654;-58
2022/08/26 08:30:05;;;;;;;7.75;7.05;;;;;;;33.79;32.26;99827.56;4985232;28;20282;-58
2022/08/26 08:32:30;;;;;;;8.30;7.35;;;;;;;33.49;33.39;99830.56;4990761;28;20222;-58
2022/08/26 08:34:57;;;;;;;10.15;8.10;;;;;;;33.92;32.12;99827.22;4994321;28;20623;-59
2022/08/26 08:37:23;;;;;;;10.98;9.65;;;;;;;33.41;33.88;99821.09;4990732;28;20543;-59
2022/08/26 08:39:48;;;;;;;12.32;8.07;;;;;;;33.09;33.99;99818.94;4986326;28;20231;-59
2022/08/26 08:42:42;;;;;;;14.35;9.57;;;;;;;31.41;36.75;99818.53;5011036;28;20234;-59
2022/08/26 08:45:24;;;;;;;15.00;8.50;;;;;;;30.75;38.50;99812.09;4994912;28;20180;-59
2022/08/26 08:47:57;;;;;;;12.05;7.53;;;;;;;30.80;38.64;99808.78;4995495;28;20216;-57
2022/08/26 08:50:30;;;;;;;9.48;8.13;;;;;;;30.67;39.10;99809.75;4987789;28;20235;-56
2022/08/26 08:53:19;;;;;;;14.80;9.02;;;;;;;30.55;39.45;99807.03;5006833;28;20557;-57
2022/08/26 08:56:07;;;;;;;11.65;9.07;;;;;;;31.89;37.62;99800.81;4994406;28;20190;-57
2022/08/26 08:59:05;;;;;;;10.73;9.00;;;;;;;31.82;36.44;99799.09;4994551;28;20196;-58
2022/08/26 09:01:43;;;;;;;12.45;10.13;;;;;;;31.34;37.34;99813.34;4996308;28;20233;-57
2022/08/26 09:04:42;;;;;;;13.68;11.00;;;;;;;31.31;37.47;99813.78;4996361;28;20202;-57
2022/08/26 09:07:11;;;;;;;12.95;9.50;;;;;;;31.43;37.33;99817.28;5003730;28;20230;-57
2022/08/26 09:09:40;;;;;;;12.30;10.07;;;;;;;31.63;37.01;99805.53;4980902;28;20302;-57
2022/08/26 09:12:11;;;;;;;14.57;10.82;;;;;;;31.43;37.61;99806.66;4991084;28;20569;-57
2022/08/26 09:14:37;;;;;;;13.90;10.50;;;;;;;32.08;36.52;99802.31;4994018;28;20199;-56
2022/08/26 09:17:32;;;;;;;12.20;10.05;;;;;;;31.67;36.43;99799.56;4987490;28;20273;-57
2022/08/26 09:20:17;;;;;;;11.55;10.35;;;;;;;31.37;37.81;99813.72;4990016;28;20659;-57
2022/08/26 09:22:43;;;;;;;11.63;10.57;;;;;;;31.54;37.62;99807.72;4978114;28;20230;-56
2022/08/26 09:25:10;;;;;;;15.35;10.75;;;;;;;31.73;36.63;99804.97;4993980;28;20183;-56
2022/08/26 09:27:44;;;;;;;11.40;10.25;;;;;;;31.61;36.94;99810.28;4994459;28;20179;-56
2022/08/26 09:30:14;;;;;;;14.18;10.77;;;;;;;31.19;37.50;99808.47;4985903;28;20290;-57
2022/08/26 09:32:40;;;;;;;15.77;12.35;;;;;;;30.56;39.28;99808.66;4999743;28;20195;-56
2022/08/26 09:35:09;;;;;;;12.45;11.23;;;;;;;30.34;41.12;99804.81;4995628;28;20182;-56
2022/08/26 09:37:37;;;;;;;12.23;10.93;;;;;;;30.84;38.88;99809.94;4988058;28;20176;-56
2022/08/26 09:40:14;;;;;;;15.35;12.45;;;;;;;31.25;37.68;99806.72;4979947;28;20594;-57
2022/08/26 09:42:39;;;;;;;14.07;11.00;;;;;;;32.59;34.73;99807.09;5016403;28;20233;-57
2022/08/26 09:45:09;;;;;;;12.90;11.55;;;;;;;34.53;31.80;99817.59;4989524;28;20215;-57
2022/08/26 09:47:46;;;;;;;14.60;12.57;;;;;;;35.01;30.69;99801.84;4985126;28;20188;-57
2022/08/26 09:50:28;;;;;;;13.98;12.65;;;;;;;35.53;29.67;99806.53;4984699;28;20237;-56
2022/08/26 09:53:05;;;;;;;13.57;11.57;;;;;;;35.84;29.13;99804.06;5004548;28;20261;-56
2022/08/26 09:55:30;;;;;;;13.60;11.98;;;;;;;36.59;28.28;99805.72;4980340;28;20187;-57
2022/08/26 09:57:55;;;;;;;15.52;12.95;;;;;;;37.05;27.64;99801.53;4993232;28;20540;-57
2022/08/26 10:00:34;;;;;;;14.40;13.10;;;;;;;38.02;26.18;99803.34;4985485;28;20220;-56
2022/08/26 10:03:03;;;;;;;13.10;11.82;;;;;;;38.66;26.04;99802.75;5004906;28;20542;-57
2022/08/26 10:05:36;;;;;;;12.57;11.27;;;;;;;40.08;23.64;99802.84;4993479;28;20187;-57
2022/08/26 10:08:31;;;;;;;14.60;12.07;;;;;;;39.90;23.68;99797.13;4993415;28;20188;-57
2022/08/26 10:11:00;;;;;;;14.82;11.93;;;;;;;40.10;23.51;99797.97;4990169;28;20285;-57
2022/08/26 10:13:32;;;;;;;11.90;10.80;;;;;;;41.19;22.06;99792.66;4990096;28;20180;-57
2022/08/26 10:16:24;;;;;;;12.98;11.65;;;;;;;41.15;21.51;99797.06;4986936;28;20702;-58
2022/08/26 10:18:53;;;;;;;14.25;10.68;;;;;;;38.17;25.06;99791.72;4981464;28;20223;-57
2022/08/26 10:21:27;;;;;;;11.77;10.50;;;;;;;38.18;25.84;99781.78;4984600;28;20226;-58
2022/08/26 10:23:56;;;;;;;13.77;11.20;;;;;;;37.69;25.95;99775.22;4989901;28;20175;-57
2022/08/26 10:26:25;;;;;;;13.25;10.80;;;;;;;36.61;27.42;99770.66;4992819;28;20596;-57
2022/08/26 10:29:05;;;;;;;16.33;10.68;;;;;;;38.41;25.48;99769.59;4984680;28;20266;-58
2022/08/26 10:31:38;;;;;;;11.20;10.27;;;;;;;38.65;24.55;99764.31;4994551;28;20281;-60
2022/08/26 10:34:04;;;;;;;12.40;10.27;;;;;;;39.44;23.68;99763.44;4993931;28;20187;-58
2022/08/26 10:36:48;;;;;;;13.93;10.07;;;;;;;41.06;22.91;99761.88;5003045;28;20653;-58
2022/08/26 10:39:43;;;;;;;13.40;10.48;;;;;;;40.35;23.39;99761.84;4990160;28;20307;-58
2022/08/26 10:42:35;;;;;;;13.20;11.38;;;;;;;38.77;24.97;99760.53;4998623;28;20226;-56
2022/08/26 10:45:12;;;;;;;19.38;10.23;;;;;;;36.88;28.03;99750.88;4977533;28;20180;-57
2022/08/26 10:47:47;;;;;;;12.85;11.65;;;;;;;34.75;30.92;99740.91;4992715;28;20179;-57
2022/08/26 10:50:12;;;;;;;16.50;12.75;;;;;;;33.42;33.41;99745.41;4983227;28;20207;-58
2022/08/26 10:52:47;;;;;;;18.05;13.35;;;;;;;31.52;37.08;99732.72;5006503;28;20194;-57
2022/08/26 10:55:34;;;;;;;13.95;12.55;;;;;;;31.16;38.51;99737.19;4992065;28;20708;-56
2022/08/26 10:58:22;;;;;;;17.00;13.45;;;;;;;30.82;39.50;99731.56;4992631;28;20183;-56
2022/08/26 11:04:03;;;;;;;17.40;12.68;;;;;;;31.25;38.73;99727.03;4991956;28;20551;-56
2022/08/26 11:06:30;;;;;;;20.52;13.15;;;;;;;30.79;40.37;99724.03;5007721;28;20879;-56
2022/08/26 11:08:58;;;;;;;14.60;13.05;;;;;;;30.57;40.93;99727.19;4987730;28;20542;-57
2022/08/26 11:11:38;;;;;;;17.83;12.73;;;;;;;30.59;40.41;99725.13;4984854;28;20285;-56
2022/08/26 11:14:17;;;;;;;13.43;11.68;;;;;;;30.79;39.57;99714.22;4994724;28;20183;-57
2022/08/26 11:16:45;;;;;;;15.48;12.57;;;;;;;30.79;39.69;99716.06;4984447;28;20232;-57
2022/08/26 11:19:40;;;;;;;13.15;11.85;;;;;;;31.32;39.07;99711.78;4982382;28;20207;-57
2022/08/26 11:22:08;;;;;;;18.52;12.85;;;;;;;31.50;37.71;99709.03;4997254;28;20305;-56
2022/08/26 11:24:55;;;;;;;15.85;12.75;;;;;;;31.21;38.71;99702.78;4992016;28;20307;-57
2022/08/26 11:27:36;;;;;;;14.30;12.77;;;;;;;31.38;38.09;99713.53;4992145;28;20639;-57
2022/08/26 11:30:16;;;;;;;13.65;12.27;;;;;;;31.43;37.97;99703.00;4993869;28;20207;-57
2022/08/26 11:32:42;;;;;;;16.13;12.60;;;;;;;30.79;39.38;99705.44;4946167;28;20253;-57
2022/08/26 11:35:11;;;;;;;16.38;12.00;;;;;;;30.69;39.60;99701.50;4998882;28;20218;-57
2022/08/26 11:37:44;;;;;;;13.68;12.40;;;;;;;30.71;39.23;99703.94;4987988;28;20679;-57
2022/08/26 11:40:17;;;;;;;13.32;11.80;;;;;;;30.88;38.71;99691.63;4976789;28;20314;-56
2022/08/26 11:42:50;;;;;;;13.50;11.85;;;;;;;31.23;38.26;99692.72;5020406;28;20266;-57
2022/08/26 11:45:23;;;;;;;11.48;10.13;;;;;;;30.83;36.93;99696.00;4996013;28;20187;-57
2022/08/26 11:47:48;;;;;;;13.02;9.60;;;;;;;31.15;37.01;99677.94;4996282;28;20202;-57